sensor_id;sensor_type;location;lat;lon;timestamp;P1;durP1;ratioP1;P2;durP2;ratioP2
57389;SDS011;43217;52.694;6.214;2023-08-30T00:00:44;11.38;;;10.48;;
57389;SDS011;43217;52.694;6.214;2023-08-30T00:03:10;11.85;;;10.85;;
57389;SDS011;43217;52.694;6.214;2023-08-30T00:05:40;11.20;;;10.07;;
57389;SDS011;43217;52.694;6.214;2023-08-30T00:08:06;11.77;;;10.68;;
57389;SDS011;43217;52.694;6.214;2023-08-30T00:10:32;11.90;;;10.90;;
57389;SDS011;43217;52.694;6.214;2023-08-30T00:12:58;12.68;;;11.48;;
57389;SDS011;43217;52.694;6.214;2023-08-30T00:15:24;11.18;;;10.18;;
57389;SDS011;43217;52.694;6.214;2023-08-30T00:17:50;11.73;;;10.65;;
57389;SDS011;43217;52.694;6.214;2023-08-30T00:20:17;12.05;;;10.85;;
57389;SDS011;43217;52.694;6.214;2023-08-30T00:22:43;12.02;;;10.93;;
57389;SDS011;43217;52.694;6.214;2023-08-30T00:25:08;11.80;;;10.73;;
57389;SDS011;43217;52.694;6.214;2023-08-30T00:27:34;13.20;;;11.90;;
57389;SDS011;43217;52.694;6.214;2023-08-30T00:30:00;12.57;;;11.30;;
57389;SDS011;43217;52.694;6.214;2023-08-30T00:32:25;12.30;;;11.23;;
57389;SDS011;43217;52.694;6.214;2023-08-30T00:34:51;12.48;;;11.27;;
57389;SDS011;43217;52.694;6.214;2023-08-30T00:37:17;12.02;;;10.93;;
57389;SDS011;43217;52.694;6.214;2023-08-30T00:39:42;12.00;;;10.88;;
57389;SDS011;43217;52.694;6.214;2023-08-30T00:42:08;12.18;;;11.07;;
57389;SDS011;43217;52.694;6.214;2023-08-30T00:44:34;12.55;;;11.45;;
57389;SDS011;43217;52.694;6.214;2023-08-30T00:47:03;11.55;;;10.60;;
57389;SDS011;43217;52.694;6.214;2023-08-30T00:49:32;11.13;;;10.13;;
57389;SDS011;43217;52.694;6.214;2023-08-30T00:52:07;13.35;;;12.05;;
57389;SDS011;43217;52.694;6.214;2023-08-30T00:54:35;12.05;;;10.85;;
57389;SDS011;43217;52.694;6.214;2023-08-30T00:57:01;11.85;;;10.77;;
57389;SDS011;43217;52.694;6.214;2023-08-30T00:59:29;12.55;;;11.38;;
57389;SDS011;43217;52.694;6.214;2023-08-30T01:01:57;12.65;;;11.35;;
57389;SDS011;43217;52.694;6.214;2023-08-30T01:04:24;12.68;;;11.48;;
57389;SDS011;43217;52.694;6.214;2023-08-30T01:06:50;12.68;;;11.57;;
57389;SDS011;43217;52.694;6.214;2023-08-30T01:09:16;12.27;;;11.07;;
57389;SDS011;43217;52.694;6.214;2023-08-30T01:14:14;13.07;;;11.90;;
57389;SDS011;43217;52.694;6.214;2023-08-30T01:16:45;13.02;;;11.73;;
57389;SDS011;43217;52.694;6.214;2023-08-30T01:27:48;12.15;;;11.05;;
57389;SDS011;43217;52.694;6.214;2023-08-30T01:30:17;12.25;;;11.15;;
57389;SDS011;43217;52.694;6.214;2023-08-30T01:32:45;13.13;;;11.82;;
57389;SDS011;43217;52.694;6.214;2023-08-30T01:35:11;12.38;;;11.27;;
57389;SDS011;43217;52.694;6.214;2023-08-30T01:37:42;11.85;;;10.85;;
57389;SDS011;43217;52.694;6.214;2023-08-30T01:40:12;11.63;;;10.60;;
57389;SDS011;43217;52.694;6.214;2023-08-30T01:42:40;12.25;;;11.05;;
57389;SDS011;43217;52.694;6.214;2023-08-30T01:45:08;11.75;;;10.70;;
57389;SDS011;43217;52.694;6.214;2023-08-30T01:47:36;11.95;;;10.85;;
57389;SDS011;43217;52.694;6.214;2023-08-30T01:50:03;11.60;;;10.60;;
57389;SDS011;43217;52.694;6.214;2023-08-30T01:52:29;12.60;;;11.45;;
57389;SDS011;43217;52.694;6.214;2023-08-30T01:54:57;11.77;;;10.73;;
57389;SDS011;43217;52.694;6.214;2023-08-30T01:57:23;12.13;;;10.98;;
57389;SDS011;43217;52.694;6.214;2023-08-30T01:59:49;11.90;;;10.80;;
57389;SDS011;43217;52.694;6.214;2023-08-30T02:02:14;12.20;;;11.10;;
57389;SDS011;43217;52.694;6.214;2023-08-30T02:04:40;13.82;;;12.63;;
57389;SDS011;43217;52.694;6.214;2023-08-30T02:07:13;12.68;;;11.63;;
57389;SDS011;43217;52.694;6.214;2023-08-30T02:09:48;12.77;;;11.57;;
57389;SDS011;43217;52.694;6.214;2023-08-30T02:12:19;13.02;;;11.80;;
57389;SDS011;43217;52.694;6.214;2023-08-30T02:14:49;13.93;;;12.73;;
57389;SDS011;43217;52.694;6.214;2023-08-30T02:17:15;13.95;;;12.65;;
57389;SDS011;43217;52.694;6.214;2023-08-30T02:19:43;13.88;;;12.48;;
57389;SDS011;43217;52.694;6.214;2023-08-30T02:24:35;15.18;;;13.88;;
57389;SDS011;43217;52.694;6.214;2023-08-30T02:27:01;14.93;;;13.43;;
57389;SDS011;43217;52.694;6.214;2023-08-30T02:29:27;15.38;;;13.85;;
57389;SDS011;43217;52.694;6.214;2023-08-30T02:31:52;15.38;;;13.85;;
57389;SDS011;43217;52.694;6.214;2023-08-30T02:34:18;15.73;;;14.20;;
57389;SDS011;43217;52.694;6.214;2023-08-30T02:36:43;14.85;;;13.35;;
57389;SDS011;43217;52.694;6.214;2023-08-30T02:39:10;15.38;;;13.73;;
57389;SDS011;43217;52.694;6.214;2023-08-30T02:41:36;14.75;;;13.35;;
57389;SDS011;43217;52.694;6.214;2023-08-30T02:44:02;14.88;;;13.50;;
57389;SDS011;43217;52.694;6.214;2023-08-30T02:46:28;15.32;;;13.93;;
57389;SDS011;43217;52.694;6.214;2023-08-30T02:48:54;14.90;;;13.60;;
57389;SDS011;43217;52.694;6.214;2023-08-30T02:51:20;14.80;;;13.48;;
57389;SDS011;43217;52.694;6.214;2023-08-30T02:53:46;14.73;;;13.43;;
57389;SDS011;43217;52.694;6.214;2023-08-30T02:56:11;14.68;;;13.20;;
57389;SDS011;43217;52.694;6.214;2023-08-30T02:58:37;15.30;;;13.77;;
57389;SDS011;43217;52.694;6.214;2023-08-30T03:01:02;15.15;;;13.75;;
57389;SDS011;43217;52.694;6.214;2023-08-30T03:03:28;15.00;;;13.65;;
57389;SDS011;43217;52.694;6.214;2023-08-30T03:05:54;14.50;;;13.23;;
57389;SDS011;43217;52.694;6.214;2023-08-30T03:08:19;15.75;;;14.25;;
57389;SDS011;43217;52.694;6.214;2023-08-30T03:10:45;14.95;;;13.45;;
57389;SDS011;43217;52.694;6.214;2023-08-30T03:13:11;14.27;;;12.73;;
57389;SDS011;43217;52.694;6.214;2023-08-30T03:15:37;14.38;;;13.07;;
57389;SDS011;43217;52.694;6.214;2023-08-30T03:18:02;15.10;;;13.70;;
57389;SDS011;43217;52.694;6.214;2023-08-30T03:20:28;14.73;;;13.48;;
57389;SDS011;43217;52.694;6.214;2023-08-30T03:22:57;13.90;;;12.68;;
57389;SDS011;43217;52.694;6.214;2023-08-30T03:25:23;15.32;;;13.93;;
57389;SDS011;43217;52.694;6.214;2023-08-30T03:27:49;14.27;;;12.98;;
57389;SDS011;43217;52.694;6.214;2023-08-30T03:30:15;14.90;;;13.50;;
57389;SDS011;43217;52.694;6.214;2023-08-30T03:32:40;15.55;;;14.02;;
57389;SDS011;43217;52.694;6.214;2023-08-30T03:35:06;15.05;;;13.68;;
57389;SDS011;43217;52.694;6.214;2023-08-30T03:37:33;15.45;;;13.98;;
57389;SDS011;43217;52.694;6.214;2023-08-30T03:39:59;14.35;;;13.00;;
57389;SDS011;43217;52.694;6.214;2023-08-30T03:42:24;14.90;;;13.45;;
57389;SDS011;43217;52.694;6.214;2023-08-30T03:44:50;13.65;;;12.27;;
57389;SDS011;43217;52.694;6.214;2023-08-30T03:47:16;14.07;;;12.77;;
57389;SDS011;43217;52.694;6.214;2023-08-30T03:49:41;12.75;;;11.55;;
57389;SDS011;43217;52.694;6.214;2023-08-30T03:52:08;13.85;;;12.60;;
57389;SDS011;43217;52.694;6.214;2023-08-30T03:54:34;13.82;;;12.60;;
57389;SDS011;43217;52.694;6.214;2023-08-30T03:57:00;13.02;;;11.82;;
57389;SDS011;43217;52.694;6.214;2023-08-30T03:59:25;12.80;;;11.70;;
57389;SDS011;43217;52.694;6.214;2023-08-30T04:01:52;13.38;;;12.27;;
57389;SDS011;43217;52.694;6.214;2023-08-30T04:04:18;13.13;;;11.93;;
57389;SDS011;43217;52.694;6.214;2023-08-30T04:06:44;13.07;;;11.88;;
57389;SDS011;43217;52.694;6.214;2023-08-30T04:09:09;14.15;;;12.82;;
57389;SDS011;43217;52.694;6.214;2023-08-30T04:11:35;12.38;;;11.27;;
57389;SDS011;43217;52.694;6.214;2023-08-30T04:14:01;13.07;;;11.82;;
57389;SDS011;43217;52.694;6.214;2023-08-30T04:16:27;13.45;;;12.25;;
57389;SDS011;43217;52.694;6.214;2023-08-30T04:18:53;13.38;;;12.07;;
57389;SDS011;43217;52.694;6.214;2023-08-30T04:21:19;13.50;;;12.35;;
57389;SDS011;43217;52.694;6.214;2023-08-30T04:23:45;12.95;;;11.80;;
57389;SDS011;43217;52.694;6.214;2023-08-30T04:26:10;12.57;;;11.48;;
57389;SDS011;43217;52.694;6.214;2023-08-30T04:28:36;12.52;;;11.35;;
57389;SDS011;43217;52.694;6.214;2023-08-30T04:31:01;12.80;;;11.50;;
57389;SDS011;43217;52.694;6.214;2023-08-30T04:33:27;13.23;;;11.57;;
57389;SDS011;43217;52.694;6.214;2023-08-30T04:35:53;12.93;;;11.73;;
57389;SDS011;43217;52.694;6.214;2023-08-30T04:38:20;13.77;;;12.45;;
57389;SDS011;43217;52.694;6.214;2023-08-30T04:40:46;12.38;;;11.25;;
57389;SDS011;43217;52.694;6.214;2023-08-30T04:43:12;12.88;;;11.55;;
57389;SDS011;43217;52.694;6.214;2023-08-30T04:45:37;13.32;;;12.13;;
57389;SDS011;43217;52.694;6.214;2023-08-30T04:48:03;13.25;;;11.95;;
57389;SDS011;43217;52.694;6.214;2023-08-30T04:50:30;13.52;;;12.23;;
57389;SDS011;43217;52.694;6.214;2023-08-30T04:52:58;12.95;;;11.75;;
57389;SDS011;43217;52.694;6.214;2023-08-30T04:55:24;13.25;;;11.90;;
57389;SDS011;43217;52.694;6.214;2023-08-30T04:57:50;12.70;;;11.50;;
57389;SDS011;43217;52.694;6.214;2023-08-30T05:00:16;13.38;;;11.88;;
57389;SDS011;43217;52.694;6.214;2023-08-30T05:02:42;12.90;;;11.68;;
57389;SDS011;43217;52.694;6.214;2023-08-30T05:05:12;13.82;;;12.48;;
57389;SDS011;43217;52.694;6.214;2023-08-30T05:07:39;13.30;;;12.00;;
57389;SDS011;43217;52.694;6.214;2023-08-30T05:10:05;13.50;;;12.20;;
57389;SDS011;43217;52.694;6.214;2023-08-30T05:12:34;13.55;;;12.13;;
57389;SDS011;43217;52.694;6.214;2023-08-30T05:14:59;13.82;;;12.30;;
57389;SDS011;43217;52.694;6.214;2023-08-30T05:17:25;14.10;;;12.40;;
57389;SDS011;43217;52.694;6.214;2023-08-30T05:22:18;14.07;;;12.23;;
57389;SDS011;43217;52.694;6.214;2023-08-30T05:24:44;13.57;;;12.18;;
57389;SDS011;43217;52.694;6.214;2023-08-30T05:27:10;13.93;;;12.52;;
57389;SDS011;43217;52.694;6.214;2023-08-30T05:29:36;13.65;;;12.27;;
57389;SDS011;43217;52.694;6.214;2023-08-30T05:32:02;14.07;;;12.68;;
57389;SDS011;43217;52.694;6.214;2023-08-30T05:34:28;14.38;;;12.90;;
57389;SDS011;43217;52.694;6.214;2023-08-30T05:36:54;14.65;;;13.15;;
57389;SDS011;43217;52.694;6.214;2023-08-30T05:39:20;14.05;;;12.65;;
57389;SDS011;43217;52.694;6.214;2023-08-30T05:41:45;14.65;;;13.15;;
57389;SDS011;43217;52.694;6.214;2023-08-30T05:44:11;14.90;;;13.35;;
57389;SDS011;43217;52.694;6.214;2023-08-30T05:46:37;14.98;;;13.48;;
57389;SDS011;43217;52.694;6.214;2023-08-30T05:49:03;13.35;;;12.05;;
57389;SDS011;43217;52.694;6.214;2023-08-30T05:51:28;16.63;;;13.70;;
57389;SDS011;43217;52.694;6.214;2023-08-30T05:53:54;13.85;;;12.45;;
57389;SDS011;43217;52.694;6.214;2023-08-30T05:56:20;13.77;;;12.32;;
57389;SDS011;43217;52.694;6.214;2023-08-30T05:58:45;13.98;;;12.48;;
57389;SDS011;43217;52.694;6.214;2023-08-30T06:01:11;14.00;;;11.82;;
57389;SDS011;43217;52.694;6.214;2023-08-30T06:03:37;13.50;;;12.25;;
57389;SDS011;43217;52.694;6.214;2023-08-30T06:06:02;14.00;;;12.50;;
57389;SDS011;43217;52.694;6.214;2023-08-30T06:08:29;13.13;;;11.82;;
57389;SDS011;43217;52.694;6.214;2023-08-30T06:10:54;13.93;;;12.57;;
57389;SDS011;43217;52.694;6.214;2023-08-30T06:13:20;13.82;;;12.32;;
57389;SDS011;43217;52.694;6.214;2023-08-30T06:15:49;14.75;;;13.25;;
57389;SDS011;43217;52.694;6.214;2023-08-30T06:18:16;13.95;;;12.50;;
57389;SDS011;43217;52.694;6.214;2023-08-30T06:20:41;15.55;;;12.57;;
57389;SDS011;43217;52.694;6.214;2023-08-30T06:23:07;14.15;;;12.65;;
57389;SDS011;43217;52.694;6.214;2023-08-30T06:25:33;15.10;;;13.13;;
57389;SDS011;43217;52.694;6.214;2023-08-30T06:27:59;16.02;;;12.20;;
57389;SDS011;43217;52.694;6.214;2023-08-30T06:32:53;14.05;;;12.55;;
57389;SDS011;43217;52.694;6.214;2023-08-30T06:35:18;12.85;;;11.55;;
57389;SDS011;43217;52.694;6.214;2023-08-30T06:37:44;13.48;;;12.18;;
57389;SDS011;43217;52.694;6.214;2023-08-30T06:40:16;12.10;;;10.90;;
57389;SDS011;43217;52.694;6.214;2023-08-30T06:42:42;13.18;;;11.88;;
57389;SDS011;43217;52.694;6.214;2023-08-30T06:45:07;13.00;;;11.70;;
57389;SDS011;43217;52.694;6.214;2023-08-30T06:47:33;13.20;;;11.90;;
57389;SDS011;43217;52.694;6.214;2023-08-30T06:52:25;12.63;;;11.05;;
57389;SDS011;43217;52.694;6.214;2023-08-30T06:54:51;12.13;;;10.93;;
57389;SDS011;43217;52.694;6.214;2023-08-30T06:57:17;11.82;;;10.73;;
57389;SDS011;43217;52.694;6.214;2023-08-30T06:59:42;14.18;;;11.25;;
57389;SDS011;43217;52.694;6.214;2023-08-30T07:02:08;12.75;;;11.43;;
57389;SDS011;43217;52.694;6.214;2023-08-30T07:04:35;13.18;;;11.88;;
57389;SDS011;43217;52.694;6.214;2023-08-30T07:07:03;11.95;;;10.85;;
57389;SDS011;43217;52.694;6.214;2023-08-30T07:09:30;12.50;;;11.30;;
57389;SDS011;43217;52.694;6.214;2023-08-30T07:11:57;12.82;;;11.50;;
57389;SDS011;43217;52.694;6.214;2023-08-30T07:14:23;12.85;;;11.40;;
57389;SDS011;43217;52.694;6.214;2023-08-30T07:16:49;12.93;;;11.63;;
57389;SDS011;43217;52.694;6.214;2023-08-30T07:19:15;11.63;;;10.52;;
57389;SDS011;43217;52.694;6.214;2023-08-30T07:21:41;11.10;;;9.88;;
57389;SDS011;43217;52.694;6.214;2023-08-30T07:24:12;11.93;;;10.70;;
57389;SDS011;43217;52.694;6.214;2023-08-30T07:26:37;11.88;;;10.75;;
57389;SDS011;43217;52.694;6.214;2023-08-30T07:29:04;12.35;;;11.27;;
57389;SDS011;43217;52.694;6.214;2023-08-30T07:31:30;12.23;;;11.02;;
57389;SDS011;43217;52.694;6.214;2023-08-30T07:33:56;13.10;;;11.82;;
57389;SDS011;43217;52.694;6.214;2023-08-30T07:36:23;11.77;;;10.67;;
57389;SDS011;43217;52.694;6.214;2023-08-30T07:38:49;12.55;;;11.45;;
57389;SDS011;43217;52.694;6.214;2023-08-30T07:41:14;12.13;;;11.00;;
57389;SDS011;43217;52.694;6.214;2023-08-30T07:43:40;12.75;;;11.45;;
57389;SDS011;43217;52.694;6.214;2023-08-30T07:46:05;12.93;;;11.60;;
57389;SDS011;43217;52.694;6.214;2023-08-30T07:48:31;12.43;;;11.23;;
57389;SDS011;43217;52.694;6.214;2023-08-30T07:50:57;13.77;;;12.48;;
57389;SDS011;43217;52.694;6.214;2023-08-30T07:53:23;13.68;;;12.27;;
57389;SDS011;43217;52.694;6.214;2023-08-30T07:55:49;13.52;;;12.15;;
57389;SDS011;43217;52.694;6.214;2023-08-30T07:58:17;13.25;;;12.00;;
57389;SDS011;43217;52.694;6.214;2023-08-30T08:00:43;14.40;;;12.90;;
57389;SDS011;43217;52.694;6.214;2023-08-30T08:03:08;13.75;;;12.30;;
57389;SDS011;43217;52.694;6.214;2023-08-30T08:05:37;13.25;;;11.85;;
57389;SDS011;43217;52.694;6.214;2023-08-30T08:08:03;13.48;;;12.18;;
57389;SDS011;43217;52.694;6.214;2023-08-30T08:10:33;13.63;;;12.23;;
57389;SDS011;43217;52.694;6.214;2023-08-30T08:12:59;12.95;;;11.75;;
57389;SDS011;43217;52.694;6.214;2023-08-30T08:15:25;13.43;;;11.52;;
57389;SDS011;43217;52.694;6.214;2023-08-30T08:17:51;13.73;;;12.27;;
57389;SDS011;43217;52.694;6.214;2023-08-30T08:20:19;14.32;;;12.90;;
57389;SDS011;43217;52.694;6.214;2023-08-30T08:22:44;14.88;;;13.43;;
57389;SDS011;43217;52.694;6.214;2023-08-30T08:25:11;14.13;;;12.38;;
57389;SDS011;43217;52.694;6.214;2023-08-30T08:27:37;12.65;;;11.45;;
57389;SDS011;43217;52.694;6.214;2023-08-30T08:30:03;13.68;;;12.23;;
57389;SDS011;43217;52.694;6.214;2023-08-30T08:32:30;14.80;;;13.30;;
57389;SDS011;43217;52.694;6.214;2023-08-30T08:34:56;13.48;;;12.07;;
57389;SDS011;43217;52.694;6.214;2023-08-30T08:37:22;13.88;;;12.05;;
57389;SDS011;43217;52.694;6.214;2023-08-30T08:39:48;14.18;;;12.77;;
57389;SDS011;43217;52.694;6.214;2023-08-30T08:42:20;14.25;;;12.80;;
57389;SDS011;43217;52.694;6.214;2023-08-30T08:44:50;13.73;;;12.32;;
57389;SDS011;43217;52.694;6.214;2023-08-30T08:47:19;14.25;;;12.75;;
57389;SDS011;43217;52.694;6.214;2023-08-30T08:49:46;16.13;;;14.45;;
57389;SDS011;43217;52.694;6.214;2023-08-30T08:52:13;15.07;;;13.50;;
57389;SDS011;43217;52.694;6.214;2023-08-30T08:54:39;16.73;;;14.57;;
57389;SDS011;43217;52.694;6.214;2023-08-30T08:57:09;17.27;;;14.48;;
57389;SDS011;43217;52.694;6.214;2023-08-30T08:59:34;17.35;;;14.10;;
57389;SDS011;43217;52.694;6.214;2023-08-30T09:02:00;15.93;;;13.70;;
57389;SDS011;43217;52.694;6.214;2023-08-30T09:04:27;15.98;;;14.48;;
57389;SDS011;43217;52.694;6.214;2023-08-30T09:06:56;14.43;;;12.98;;
57389;SDS011;43217;52.694;6.214;2023-08-30T09:09:23;16.48;;;13.90;;
57389;SDS011;43217;52.694;6.214;2023-08-30T09:11:49;14.38;;;12.88;;
57389;SDS011;43217;52.694;6.214;2023-08-30T09:14:15;13.55;;;12.20;;
57389;SDS011;43217;52.694;6.214;2023-08-30T09:16:41;13.82;;;12.43;;
57389;SDS011;43217;52.694;6.214;2023-08-30T09:19:06;16.35;;;11.75;;
57389;SDS011;43217;52.694;6.214;2023-08-30T09:21:32;11.88;;;10.77;;
57389;SDS011;43217;52.694;6.214;2023-08-30T09:24:02;12.68;;;11.20;;
57389;SDS011;43217;52.694;6.214;2023-08-30T09:26:29;11.23;;;10.13;;
57389;SDS011;43217;52.694;6.214;2023-08-30T09:29:06;10.18;;;9.15;;
57389;SDS011;43217;52.694;6.214;2023-08-30T09:31:36;10.50;;;9.40;;
57389;SDS011;43217;52.694;6.214;2023-08-30T09:34:04;11.20;;;10.10;;
57389;SDS011;43217;52.694;6.214;2023-08-30T09:36:37;10.70;;;9.70;;
57389;SDS011;43217;52.694;6.214;2023-08-30T09:39:08;10.07;;;9.07;;
57389;SDS011;43217;52.694;6.214;2023-08-30T09:41:45;11.23;;;9.90;;
57389;SDS011;43217;52.694;6.214;2023-08-30T09:46:42;10.60;;;9.60;;
57389;SDS011;43217;52.694;6.214;2023-08-30T09:49:14;10.60;;;9.52;;
57389;SDS011;43217;52.694;6.214;2023-08-30T09:51:40;11.75;;;10.45;;
57389;SDS011;43217;52.694;6.214;2023-08-30T09:54:09;11.27;;;10.25;;
57389;SDS011;43217;52.694;6.214;2023-08-30T09:56:55;11.05;;;9.98;;
57389;SDS011;43217;52.694;6.214;2023-08-30T09:59:24;12.52;;;11.32;;
57389;SDS011;43217;52.694;6.214;2023-08-30T10:01:51;12.30;;;11.20;;
57389;SDS011;43217;52.694;6.214;2023-08-30T10:04:20;11.45;;;10.45;;
57389;SDS011;43217;52.694;6.214;2023-08-30T10:06:46;11.60;;;10.13;;
57389;SDS011;43217;52.694;6.214;2023-08-30T10:09:12;10.82;;;9.77;;
57389;SDS011;43217;52.694;6.214;2023-08-30T10:11:40;10.32;;;9.32;;
57389;SDS011;43217;52.694;6.214;2023-08-30T10:14:06;10.07;;;9.07;;
57389;SDS011;43217;52.694;6.214;2023-08-30T10:16:37;10.52;;;9.57;;
57389;SDS011;43217;52.694;6.214;2023-08-30T10:19:16;10.80;;;9.80;;
57389;SDS011;43217;52.694;6.214;2023-08-30T10:22:00;10.60;;;9.57;;
57389;SDS011;43217;52.694;6.214;2023-08-30T10:24:28;10.57;;;9.57;;
57389;SDS011;43217;52.694;6.214;2023-08-30T10:26:56;10.88;;;9.70;;
57389;SDS011;43217;52.694;6.214;2023-08-30T10:31:51;10.48;;;9.48;;
57389;SDS011;43217;52.694;6.214;2023-08-30T10:34:17;25.85;;;23.20;;
57389;SDS011;43217;52.694;6.214;2023-08-30T10:36:44;10.50;;;9.50;;
57389;SDS011;43217;52.694;6.214;2023-08-30T10:39:13;11.60;;;10.60;;
57389;SDS011;43217;52.694;6.214;2023-08-30T10:41:55;10.80;;;9.70;;
57389;SDS011;43217;52.694;6.214;2023-08-30T10:44:24;10.63;;;9.68;;
57389;SDS011;43217;52.694;6.214;2023-08-30T10:50:06;11.93;;;10.82;;
57389;SDS011;43217;52.694;6.214;2023-08-30T10:52:33;11.88;;;10.60;;
57389;SDS011;43217;52.694;6.214;2023-08-30T10:55:05;12.07;;;10.98;;
57389;SDS011;43217;52.694;6.214;2023-08-30T10:57:35;12.10;;;10.90;;
57389;SDS011;43217;52.694;6.214;2023-08-30T11:00:34;12.10;;;10.90;;
57389;SDS011;43217;52.694;6.214;2023-08-30T11:02:55;14.18;;;12.77;;
57389;SDS011;43217;52.694;6.214;2023-08-30T11:05:21;12.93;;;11.57;;
57389;SDS011;43217;52.694;6.214;2023-08-30T11:07:51;12.52;;;11.43;;
57389;SDS011;43217;52.694;6.214;2023-08-30T11:10:18;14.40;;;13.00;;
57389;SDS011;43217;52.694;6.214;2023-08-30T11:12:45;13.23;;;12.02;;
57389;SDS011;43217;52.694;6.214;2023-08-30T11:15:12;15.52;;;13.55;;
57389;SDS011;43217;52.694;6.214;2023-08-30T11:17:41;14.45;;;13.10;;
57389;SDS011;43217;52.694;6.214;2023-08-30T11:20:14;15.18;;;13.57;;
57389;SDS011;43217;52.694;6.214;2023-08-30T11:22:45;15.20;;;13.73;;
57389;SDS011;43217;52.694;6.214;2023-08-30T11:25:13;14.52;;;13.13;;
57389;SDS011;43217;52.694;6.214;2023-08-30T11:27:39;15.27;;;13.88;;
57389;SDS011;43217;52.694;6.214;2023-08-30T11:30:06;15.85;;;14.23;;
57389;SDS011;43217;52.694;6.214;2023-08-30T11:32:37;14.75;;;13.15;;
57389;SDS011;43217;52.694;6.214;2023-08-30T11:35:04;15.27;;;13.77;;
57389;SDS011;43217;52.694;6.214;2023-08-30T11:37:30;15.25;;;13.85;;
57389;SDS011;43217;52.694;6.214;2023-08-30T11:39:56;15.43;;;13.93;;
57389;SDS011;43217;52.694;6.214;2023-08-30T11:42:22;15.57;;;13.98;;
57389;SDS011;43217;52.694;6.214;2023-08-30T11:44:48;15.30;;;13.82;;
57389;SDS011;43217;52.694;6.214;2023-08-30T11:47:18;14.40;;;13.07;;
57389;SDS011;43217;52.694;6.214;2023-08-30T11:49:46;14.55;;;13.15;;
57389;SDS011;43217;52.694;6.214;2023-08-30T11:52:13;16.65;;;14.65;;
57389;SDS011;43217;52.694;6.214;2023-08-30T11:54:40;13.50;;;12.20;;
57389;SDS011;43217;52.694;6.214;2023-08-30T11:57:06;14.25;;;12.90;;
57389;SDS011;43217;52.694;6.214;2023-08-30T11:59:34;14.98;;;13.55;;
57389;SDS011;43217;52.694;6.214;2023-08-30T12:02:00;11.77;;;10.73;;
57389;SDS011;43217;52.694;6.214;2023-08-30T12:04:27;12.93;;;11.73;;
57389;SDS011;43217;52.694;6.214;2023-08-30T12:06:53;11.68;;;10.68;;
57389;SDS011;43217;52.694;6.214;2023-08-30T12:09:19;11.70;;;10.68;;
57389;SDS011;43217;52.694;6.214;2023-08-30T12:11:47;12.38;;;11.27;;
57389;SDS011;43217;52.694;6.214;2023-08-30T12:14:16;11.57;;;10.57;;
57389;SDS011;43217;52.694;6.214;2023-08-30T12:16:43;11.73;;;10.73;;
57389;SDS011;43217;52.694;6.214;2023-08-30T12:19:12;11.65;;;10.57;;
57389;SDS011;43217;52.694;6.214;2023-08-30T12:21:41;11.73;;;10.68;;
57389;SDS011;43217;52.694;6.214;2023-08-30T12:24:08;10.30;;;9.40;;
57389;SDS011;43217;52.694;6.214;2023-08-30T12:29:04;9.73;;;8.80;;
57389;SDS011;43217;52.694;6.214;2023-08-30T12:31:33;11.13;;;10.18;;
57389;SDS011;43217;52.694;6.214;2023-08-30T12:33:59;10.93;;;9.93;;
57389;SDS011;43217;52.694;6.214;2023-08-30T12:36:25;11.20;;;10.20;;
57389;SDS011;43217;52.694;6.214;2023-08-30T12:38:56;9.70;;;8.90;;
57389;SDS011;43217;52.694;6.214;2023-08-30T12:41:22;9.68;;;8.88;;
57389;SDS011;43217;52.694;6.214;2023-08-30T12:43:48;10.18;;;9.38;;
57389;SDS011;43217;52.694;6.214;2023-08-30T12:46:15;10.85;;;9.98;;
57389;SDS011;43217;52.694;6.214;2023-08-30T12:48:40;10.27;;;9.48;;
57389;SDS011;43217;52.694;6.214;2023-08-30T12:51:06;11.18;;;10.18;;
57389;SDS011;43217;52.694;6.214;2023-08-30T12:53:32;11.20;;;10.30;;
57389;SDS011;43217;52.694;6.214;2023-08-30T12:55:57;12.27;;;11.18;;
57389;SDS011;43217;52.694;6.214;2023-08-30T12:58:23;11.77;;;10.68;;
57389;SDS011;43217;52.694;6.214;2023-08-30T13:00:49;11.48;;;10.48;;
57389;SDS011;43217;52.694;6.214;2023-08-30T13:03:15;10.50;;;9.70;;
57389;SDS011;43217;52.694;6.214;2023-08-30T13:05:40;11.25;;;10.32;;
57389;SDS011;43217;52.694;6.214;2023-08-30T13:08:06;11.20;;;10.25;;
57389;SDS011;43217;52.694;6.214;2023-08-30T13:10:32;11.63;;;10.63;;
57389;SDS011;43217;52.694;6.214;2023-08-30T13:12:58;11.13;;;10.13;;
57389;SDS011;43217;52.694;6.214;2023-08-30T13:15:24;10.55;;;9.75;;
57389;SDS011;43217;52.694;6.214;2023-08-30T13:17:50;11.75;;;10.85;;
57389;SDS011;43217;52.694;6.214;2023-08-30T13:20:16;10.95;;;10.15;;
57389;SDS011;43217;52.694;6.214;2023-08-30T13:22:42;12.18;;;11.18;;
57389;SDS011;43217;52.694;6.214;2023-08-30T13:25:08;12.05;;;10.85;;
57389;SDS011;43217;52.694;6.214;2023-08-30T13:27:34;10.05;;;9.07;;
57389;SDS011;43217;52.694;6.214;2023-08-30T13:30:02;9.55;;;8.75;;
57389;SDS011;43217;52.694;6.214;2023-08-30T13:32:28;8.73;;;8.02;;
57389;SDS011;43217;52.694;6.214;2023-08-30T13:34:54;8.52;;;7.82;;
57389;SDS011;43217;52.694;6.214;2023-08-30T13:37:20;5.57;;;5.18;;
57389;SDS011;43217;52.694;6.214;2023-08-30T13:39:45;4.78;;;4.38;;
57389;SDS011;43217;52.694;6.214;2023-08-30T13:42:11;4.57;;;4.20;;
57389;SDS011;43217;52.694;6.214;2023-08-30T13:44:37;4.53;;;4.22;;
57389;SDS011;43217;52.694;6.214;2023-08-30T13:47:03;3.53;;;3.30;;
57389;SDS011;43217;52.694;6.214;2023-08-30T13:49:30;4.70;;;3.70;;
57389;SDS011;43217;52.694;6.214;2023-08-30T13:51:56;3.60;;;3.30;;
57389;SDS011;43217;52.694;6.214;2023-08-30T13:54:22;3.42;;;3.10;;
57389;SDS011;43217;52.694;6.214;2023-08-30T13:56:48;5.05;;;4.00;;
57389;SDS011;43217;52.694;6.214;2023-08-30T13:59:15;4.30;;;3.90;;
57389;SDS011;43217;52.694;6.214;2023-08-30T14:01:41;3.53;;;3.00;;
57389;SDS011;43217;52.694;6.214;2023-08-30T14:04:07;5.20;;;3.22;;
57389;SDS011;43217;52.694;6.214;2023-08-30T14:06:32;5.05;;;4.53;;
57389;SDS011;43217;52.694;6.214;2023-08-30T14:08:58;5.05;;;3.47;;
57389;SDS011;43217;52.694;6.214;2023-08-30T14:11:24;5.72;;;3.88;;
57389;SDS011;43217;52.694;6.214;2023-08-30T14:13:49;3.90;;;3.50;;
57389;SDS011;43217;52.694;6.214;2023-08-30T14:16:15;5.40;;;4.25;;
57389;SDS011;43217;52.694;6.214;2023-08-30T14:18:42;7.13;;;3.95;;
57389;SDS011;43217;52.694;6.214;2023-08-30T14:21:08;4.97;;;3.42;;
57389;SDS011;43217;52.694;6.214;2023-08-30T14:23:34;3.40;;;3.10;;
57389;SDS011;43217;52.694;6.214;2023-08-30T14:26:04;6.72;;;3.50;;
57389;SDS011;43217;52.694;6.214;2023-08-30T14:28:34;4.68;;;3.08;;
57389;SDS011;43217;52.694;6.214;2023-08-30T14:31:08;6.07;;;3.22;;
57389;SDS011;43217;52.694;6.214;2023-08-30T14:33:35;6.35;;;3.10;;
57389;SDS011;43217;52.694;6.214;2023-08-30T14:36:01;6.38;;;3.15;;
57389;SDS011;43217;52.694;6.214;2023-08-30T14:38:27;4.97;;;2.65;;
57389;SDS011;43217;52.694;6.214;2023-08-30T14:40:54;3.95;;;2.17;;
57389;SDS011;43217;52.694;6.214;2023-08-30T14:43:24;5.05;;;2.55;;
57389;SDS011;43217;52.694;6.214;2023-08-30T14:45:50;5.13;;;2.53;;
57389;SDS011;43217;52.694;6.214;2023-08-30T14:48:15;4.57;;;2.17;;
57389;SDS011;43217;52.694;6.214;2023-08-30T14:50:41;4.60;;;3.05;;
57389;SDS011;43217;52.694;6.214;2023-08-30T14:53:07;5.03;;;2.20;;
57389;SDS011;43217;52.694;6.214;2023-08-30T14:55:32;3.92;;;2.38;;